sensor_id;sensor_type;location;lat;lon;timestamp;temperature;humidity
8214;DHT22;4148;47.974;7.824;2023-07-22T00:00:44;15.60;99.90
8214;DHT22;4148;47.974;7.824;2023-07-22T00:03:13;15.60;99.90
8214;DHT22;4148;47.974;7.824;2023-07-22T00:05:41;15.50;99.90
8214;DHT22;4148;47.974;7.824;2023-07-22T00:08:10;15.60;99.90
8214;DHT22;4148;47.974;7.824;2023-07-22T00:10:40;15.60;99.90
8214;DHT22;4148;47.974;7.824;2023-07-22T00:13:08;15.50;99.90
8214;DHT22;4148;47.974;7.824;2023-07-22T00:15:36;15.50;99.90
8214;DHT22;4148;47.974;7.824;2023-07-22T00:18:04;15.40;99.90
8214;DHT22;4148;47.974;7.824;2023-07-22T00:20:34;15.30;99.90
8214;DHT22;4148;47.974;7.824;2023-07-22T00:23:02;15.40;99.90
8214;DHT22;4148;47.974;7.824;2023-07-22T00:25:30;15.40;99.90
8214;DHT22;4148;47.974;7.824;2023-07-22T00:27:58;15.30;99.90
8214;DHT22;4148;47.974;7.824;2023-07-22T00:30:26;15.20;99.90
8214;DHT22;4148;47.974;7.824;2023-07-22T00:32:54;15.10;99.90
8214;DHT22;4148;47.974;7.824;2023-07-22T00:35:22;15.00;99.90
8214;DHT22;4148;47.974;7.824;2023-07-22T00:37:52;15.00;99.90
8214;DHT22;4148;47.974;7.824;2023-07-22T00:40:19;14.90;99.90
8214;DHT22;4148;47.974;7.824;2023-07-22T00:42:47;14.90;99.90
8214;DHT22;4148;47.974;7.824;2023-07-22T00:45:16;15.00;99.90
8214;DHT22;4148;47.974;7.824;2023-07-22T00:47:44;14.90;99.90
8214;DHT22;4148;47.974;7.824;2023-07-22T00:50:13;14.80;99.90
8214;DHT22;4148;47.974;7.824;2023-07-22T00:52:40;14.70;99.90
8214;DHT22;4148;47.974;7.824;2023-07-22T00:55:10;14.70;99.90
8214;DHT22;4148;47.974;7.824;2023-07-22T00:57:38;14.60;99.90
8214;DHT22;4148;47.974;7.824;2023-07-22T01:00:07;14.50;99.90
8214;DHT22;4148;47.974;7.824;2023-07-22T01:02:38;14.50;99.90
8214;DHT22;4148;47.974;7.824;2023-07-22T01:05:06;14.50;99.90
8214;DHT22;4148;47.974;7.824;2023-07-22T01:07:36;14.60;99.90
8214;DHT22;4148;47.974;7.824;2023-07-22T01:10:06;14.50;99.90
8214;DHT22;4148;47.974;7.824;2023-07-22T01:12:36;14.40;99.90
8214;DHT22;4148;47.974;7.824;2023-07-22T01:15:05;14.40;99.90
8214;DHT22;4148;47.974;7.824;2023-07-22T01:17:37;14.40;99.90
8214;DHT22;4148;47.974;7.824;2023-07-22T01:20:06;14.30;99.90
8214;DHT22;4148;47.974;7.824;2023-07-22T01:22:34;14.40;99.90
8214;DHT22;4148;47.974;7.824;2023-07-22T01:25:05;14.40;99.90
8214;DHT22;4148;47.974;7.824;2023-07-22T01:27:34;14.30;99.90
8214;DHT22;4148;47.974;7.824;2023-07-22T01:30:02;14.40;99.90
8214;DHT22;4148;47.974;7.824;2023-07-22T01:32:30;14.40;99.90
8214;DHT22;4148;47.974;7.824;2023-07-22T01:34:58;14.30;99.90
8214;DHT22;4148;47.974;7.824;2023-07-22T01:37:26;14.40;99.90
8214;DHT22;4148;47.974;7.824;2023-07-22T01:39:54;14.40;99.90
8214;DHT22;4148;47.974;7.824;2023-07-22T01:42:25;14.40;99.90
8214;DHT22;4148;47.974;7.824;2023-07-22T01:44:53;14.40;99.90
8214;DHT22;4148;47.974;7.824;2023-07-22T01:47:21;14.30;99.90
8214;DHT22;4148;47.974;7.824;2023-07-22T01:49:49;14.20;99.90
8214;DHT22;4148;47.974;7.824;2023-07-22T01:52:16;14.10;99.90
8214;DHT22;4148;47.974;7.824;2023-07-22T01:54:44;14.10;99.90
8214;DHT22;4148;47.974;7.824;2023-07-22T01:57:12;14.20;99.90
8214;DHT22;4148;47.974;7.824;2023-07-22T01:59:42;14.20;99.90
8214;DHT22;4148;47.974;7.824;2023-07-22T02:02:10;14.20;99.90
8214;DHT22;4148;47.974;7.824;2023-07-22T02:04:38;14.20;99.90
8214;DHT22;4148;47.974;7.824;2023-07-22T02:07:06;14.30;99.90
8214;DHT22;4148;47.974;7.824;2023-07-22T02:09:33;14.40;99.90
8214;DHT22;4148;47.974;7.824;2023-07-22T02:12:01;14.50;99.90
8214;DHT22;4148;47.974;7.824;2023-07-22T02:14:30;14.70;99.90
8214;DHT22;4148;47.974;7.824;2023-07-22T02:16:59;14.70;99.90
8214;DHT22;4148;47.974;7.824;2023-07-22T02:19:27;14.60;99.90
8214;DHT22;4148;47.974;7.824;2023-07-22T02:21:54;14.60;99.90
8214;DHT22;4148;47.974;7.824;2023-07-22T02:24:23;14.60;99.90
8214;DHT22;4148;47.974;7.824;2023-07-22T02:26:51;14.60;99.90
8214;DHT22;4148;47.974;7.824;2023-07-22T02:29:19;14.60;99.90
8214;DHT22;4148;47.974;7.824;2023-07-22T02:31:47;14.60;99.90
8214;DHT22;4148;47.974;7.824;2023-07-22T02:34:16;14.50;99.90
8214;DHT22;4148;47.974;7.824;2023-07-22T02:36:44;14.50;99.90
8214;DHT22;4148;47.974;7.824;2023-07-22T02:39:12;14.40;99.90
8214;DHT22;4148;47.974;7.824;2023-07-22T02:41:40;14.50;99.90
8214;DHT22;4148;47.974;7.824;2023-07-22T02:44:08;14.50;99.90
8214;DHT22;4148;47.974;7.824;2023-07-22T02:46:36;14.50;99.90
8214;DHT22;4148;47.974;7.824;2023-07-22T02:49:04;14.60;99.90
8214;DHT22;4148;47.974;7.824;2023-07-22T02:51:33;14.80;99.90
8214;DHT22;4148;47.974;7.824;2023-07-22T02:54:01;14.70;99.90
8214;DHT22;4148;47.974;7.824;2023-07-22T02:56:28;14.90;99.90
8214;DHT22;4148;47.974;7.824;2023-07-22T02:58:56;14.90;99.90
8214;DHT22;4148;47.974;7.824;2023-07-22T03:01:24;14.80;99.90
8214;DHT22;4148;47.974;7.824;2023-07-22T03:03:53;14.70;99.90
8214;DHT22;4148;47.974;7.824;2023-07-22T03:06:21;14.70;99.90
8214;DHT22;4148;47.974;7.824;2023-07-22T03:08:50;14.80;99.90
8214;DHT22;4148;47.974;7.824;2023-07-22T03:11:20;14.70;99.90
8214;DHT22;4148;47.974;7.824;2023-07-22T03:13:51;14.70;99.90
8214;DHT22;4148;47.974;7.824;2023-07-22T03:16:20;14.60;99.90
8214;DHT22;4148;47.974;7.824;2023-07-22T03:18:48;14.50;99.90
8214;DHT22;4148;47.974;7.824;2023-07-22T03:21:16;14.40;99.90
8214;DHT22;4148;47.974;7.824;2023-07-22T03:23:44;14.40;99.90
8214;DHT22;4148;47.974;7.824;2023-07-22T03:26:14;14.40;99.90
8214;DHT22;4148;47.974;7.824;2023-07-22T03:28:42;14.40;99.90
8214;DHT22;4148;47.974;7.824;2023-07-22T03:31:10;14.50;99.90
8214;DHT22;4148;47.974;7.824;2023-07-22T03:33:38;14.50;99.90
8214;DHT22;4148;47.974;7.824;2023-07-22T03:36:06;14.50;99.90
8214;DHT22;4148;47.974;7.824;2023-07-22T03:38:34;14.60;99.90
8214;DHT22;4148;47.974;7.824;2023-07-22T03:41:01;14.60;99.90
8214;DHT22;4148;47.974;7.824;2023-07-22T03:43:31;14.70;99.90
8214;DHT22;4148;47.974;7.824;2023-07-22T03:45:59;14.70;99.90
8214;DHT22;4148;47.974;7.824;2023-07-22T03:48:27;14.60;99.90
8214;DHT22;4148;47.974;7.824;2023-07-22T03:50:54;14.70;99.90
8214;DHT22;4148;47.974;7.824;2023-07-22T03:53:42;14.70;99.90
8214;DHT22;4148;47.974;7.824;2023-07-22T03:56:10;14.60;99.90
8214;DHT22;4148;47.974;7.824;2023-07-22T03:58:39;14.70;99.90
8214;DHT22;4148;47.974;7.824;2023-07-22T04:01:07;14.70;99.90
8214;DHT22;4148;47.974;7.824;2023-07-22T04:03:38;14.70;99.90
8214;DHT22;4148;47.974;7.824;2023-07-22T04:06:06;14.50;99.90
8214;DHT22;4148;47.974;7.824;2023-07-22T04:08:33;14.60;99.90
8214;DHT22;4148;47.974;7.824;2023-07-22T04:11:01;14.50;99.90
8214;DHT22;4148;47.974;7.824;2023-07-22T04:13:29;14.50;99.90
8214;DHT22;4148;47.974;7.824;2023-07-22T04:15:58;14.40;99.90
8214;DHT22;4148;47.974;7.824;2023-07-22T04:18:26;14.40;99.90
8214;DHT22;4148;47.974;7.824;2023-07-22T04:21:00;14.40;99.90
8214;DHT22;4148;47.974;7.824;2023-07-22T04:23:28;14.40;99.90
8214;DHT22;4148;47.974;7.824;2023-07-22T04:25:57;14.40;99.90
8214;DHT22;4148;47.974;7.824;2023-07-22T04:28:25;14.30;99.90
8214;DHT22;4148;47.974;7.824;2023-07-22T04:30:57;14.20;99.90
8214;DHT22;4148;47.974;7.824;2023-07-22T04:33:27;14.00;99.90
8214;DHT22;4148;47.974;7.824;2023-07-22T04:35:58;14.00;99.90
8214;DHT22;4148;47.974;7.824;2023-07-22T04:38:26;14.00;99.90
8214;DHT22;4148;47.974;7.824;2023-07-22T04:40:54;14.10;99.90
8214;DHT22;4148;47.974;7.824;2023-07-22T04:43:22;14.10;99.90
8214;DHT22;4148;47.974;7.824;2023-07-22T04:45:51;14.10;99.90
8214;DHT22;4148;47.974;7.824;2023-07-22T04:48:20;14.10;99.90
8214;DHT22;4148;47.974;7.824;2023-07-22T04:50:50;14.10;99.90
8214;DHT22;4148;47.974;7.824;2023-07-22T04:53:18;14.10;99.90
8214;DHT22;4148;47.974;7.824;2023-07-22T04:55:46;14.10;99.90
8214;DHT22;4148;47.974;7.824;2023-07-22T04:58:14;14.40;99.90
8214;DHT22;4148;47.974;7.824;2023-07-22T05:00:42;14.50;99.90
8214;DHT22;4148;47.974;7.824;2023-07-22T05:03:10;14.60;99.90
8214;DHT22;4148;47.974;7.824;2023-07-22T05:05:38;14.70;99.90
8214;DHT22;4148;47.974;7.824;2023-07-22T05:08:07;14.70;99.90
8214;DHT22;4148;47.974;7.824;2023-07-22T05:10:36;14.70;99.90
8214;DHT22;4148;47.974;7.824;2023-07-22T05:13:04;14.70;99.90
8214;DHT22;4148;47.974;7.824;2023-07-22T05:15:32;14.80;99.90
8214;DHT22;4148;47.974;7.824;2023-07-22T05:18:00;14.90;99.90
8214;DHT22;4148;47.974;7.824;2023-07-22T05:20:28;14.90;99.90
8214;DHT22;4148;47.974;7.824;2023-07-22T05:22:56;15.00;99.90
8214;DHT22;4148;47.974;7.824;2023-07-22T05:25:25;15.00;99.90
8214;DHT22;4148;47.974;7.824;2023-07-22T05:27:53;14.90;99.90
8214;DHT22;4148;47.974;7.824;2023-07-22T05:30:21;14.90;99.90
8214;DHT22;4148;47.974;7.824;2023-07-22T05:33:01;15.00;99.90
8214;DHT22;4148;47.974;7.824;2023-07-22T05:35:29;15.00;99.90
8214;DHT22;4148;47.974;7.824;2023-07-22T05:37:57;15.20;99.90
8214;DHT22;4148;47.974;7.824;2023-07-22T05:40:26;15.30;99.90
8214;DHT22;4148;47.974;7.824;2023-07-22T05:42:54;15.40;99.90
8214;DHT22;4148;47.974;7.824;2023-07-22T05:45:22;15.50;99.90
8214;DHT22;4148;47.974;7.824;2023-07-22T05:47:50;15.60;99.90
8214;DHT22;4148;47.974;7.824;2023-07-22T05:50:18;15.60;99.90
8214;DHT22;4148;47.974;7.824;2023-07-22T05:52:46;15.70;99.90
8214;DHT22;4148;47.974;7.824;2023-07-22T05:55:14;15.80;99.90
8214;DHT22;4148;47.974;7.824;2023-07-22T05:57:43;15.90;99.90
8214;DHT22;4148;47.974;7.824;2023-07-22T06:00:12;16.00;99.90
8214;DHT22;4148;47.974;7.824;2023-07-22T06:02:40;16.20;99.90
8214;DHT22;4148;47.974;7.824;2023-07-22T06:05:09;16.30;99.90
8214;DHT22;4148;47.974;7.824;2023-07-22T06:07:37;16.40;99.90
8214;DHT22;4148;47.974;7.824;2023-07-22T06:10:06;16.60;99.90
8214;DHT22;4148;47.974;7.824;2023-07-22T06:12:34;16.60;99.90
8214;DHT22;4148;47.974;7.824;2023-07-22T06:15:05;16.70;99.90
8214;DHT22;4148;47.974;7.824;2023-07-22T06:17:33;16.80;99.90
8214;DHT22;4148;47.974;7.824;2023-07-22T06:20:01;16.90;99.90
8214;DHT22;4148;47.974;7.824;2023-07-22T06:22:29;16.90;99.90
8214;DHT22;4148;47.974;7.824;2023-07-22T06:24:57;17.00;99.90
8214;DHT22;4148;47.974;7.824;2023-07-22T06:27:25;17.10;99.90
8214;DHT22;4148;47.974;7.824;2023-07-22T06:29:53;17.20;99.90
8214;DHT22;4148;47.974;7.824;2023-07-22T06:32:23;17.20;99.90
8214;DHT22;4148;47.974;7.824;2023-07-22T06:34:51;17.30;99.90
8214;DHT22;4148;47.974;7.824;2023-07-22T06:37:19;17.40;99.90
8214;DHT22;4148;47.974;7.824;2023-07-22T06:39:46;17.40;99.90
8214;DHT22;4148;47.974;7.824;2023-07-22T06:42:14;17.50;99.90
8214;DHT22;4148;47.974;7.824;2023-07-22T06:44:42;17.60;99.90
8214;DHT22;4148;47.974;7.824;2023-07-22T06:47:10;17.80;99.90
8214;DHT22;4148;47.974;7.824;2023-07-22T06:49:40;17.90;99.90
8214;DHT22;4148;47.974;7.824;2023-07-22T06:52:12;18.10;99.90
8214;DHT22;4148;47.974;7.824;2023-07-22T06:54:40;18.30;99.90
8214;DHT22;4148;47.974;7.824;2023-07-22T06:57:08;18.50;99.90
8214;DHT22;4148;47.974;7.824;2023-07-22T06:59:36;18.80;99.90
8214;DHT22;4148;47.974;7.824;2023-07-22T07:02:04;19.00;99.90
8214;DHT22;4148;47.974;7.824;2023-07-22T07:04:32;19.20;99.90
8214;DHT22;4148;47.974;7.824;2023-07-22T07:07:01;19.40;99.90
8214;DHT22;4148;47.974;7.824;2023-07-22T07:09:30;19.60;99.90
8214;DHT22;4148;47.974;7.824;2023-07-22T07:11:58;19.70;99.90
8214;DHT22;4148;47.974;7.824;2023-07-22T07:14:25;19.80;99.90
8214;DHT22;4148;47.974;7.824;2023-07-22T07:16:54;20.00;99.90
8214;DHT22;4148;47.974;7.824;2023-07-22T07:19:22;20.30;99.90
8214;DHT22;4148;47.974;7.824;2023-07-22T07:21:50;20.40;99.90
8214;DHT22;4148;47.974;7.824;2023-07-22T07:24:19;20.60;99.90
8214;DHT22;4148;47.974;7.824;2023-07-22T07:26:47;20.70;99.90
8214;DHT22;4148;47.974;7.824;2023-07-22T07:29:16;20.90;99.90
8214;DHT22;4148;47.974;7.824;2023-07-22T07:32:04;21.00;99.90
8214;DHT22;4148;47.974;7.824;2023-07-22T07:34:32;21.20;99.90
8214;DHT22;4148;47.974;7.824;2023-07-22T07:37:00;21.40;99.90
8214;DHT22;4148;47.974;7.824;2023-07-22T07:39:30;21.50;99.90
8214;DHT22;4148;47.974;7.824;2023-07-22T07:41:58;21.70;99.90
8214;DHT22;4148;47.974;7.824;2023-07-22T07:44:26;21.80;99.90
8214;DHT22;4148;47.974;7.824;2023-07-22T07:46:54;22.00;99.90
8214;DHT22;4148;47.974;7.824;2023-07-22T07:49:21;22.00;99.90
8214;DHT22;4148;47.974;7.824;2023-07-22T07:51:49;22.20;99.90
8214;DHT22;4148;47.974;7.824;2023-07-22T07:54:17;22.50;99.90
8214;DHT22;4148;47.974;7.824;2023-07-22T07:56:46;22.60;99.90
8214;DHT22;4148;47.974;7.824;2023-07-22T07:59:15;22.80;99.90
8214;DHT22;4148;47.974;7.824;2023-07-22T08:01:43;22.90;99.90
8214;DHT22;4148;47.974;7.824;2023-07-22T08:04:11;23.00;99.90
8214;DHT22;4148;47.974;7.824;2023-07-22T08:06:39;23.10;99.90
8214;DHT22;4148;47.974;7.824;2023-07-22T08:09:07;23.20;99.90
8214;DHT22;4148;47.974;7.824;2023-07-22T08:11:37;23.30;99.90
8214;DHT22;4148;47.974;7.824;2023-07-22T08:14:07;23.50;99.90
8214;DHT22;4148;47.974;7.824;2023-07-22T08:16:35;23.80;99.90
8214;DHT22;4148;47.974;7.824;2023-07-22T08:19:03;24.00;99.90
8214;DHT22;4148;47.974;7.824;2023-07-22T08:21:31;24.30;99.90
8214;DHT22;4148;47.974;7.824;2023-07-22T08:23:59;24.40;99.90
8214;DHT22;4148;47.974;7.824;2023-07-22T08:26:27;24.60;99.90
8214;DHT22;4148;47.974;7.824;2023-07-22T08:28:57;24.80;99.90
8214;DHT22;4148;47.974;7.824;2023-07-22T08:31:26;25.10;99.90
8214;DHT22;4148;47.974;7.824;2023-07-22T08:33:54;25.30;99.90
8214;DHT22;4148;47.974;7.824;2023-07-22T08:36:22;25.70;99.90
8214;DHT22;4148;47.974;7.824;2023-07-22T08:38:49;25.80;99.90
8214;DHT22;4148;47.974;7.824;2023-07-22T08:41:17;25.80;99.90
8214;DHT22;4148;47.974;7.824;2023-07-22T08:43:45;26.20;99.90
8214;DHT22;4148;47.974;7.824;2023-07-22T08:46:15;26.30;99.90
8214;DHT22;4148;47.974;7.824;2023-07-22T08:48:49;26.60;99.90
8214;DHT22;4148;47.974;7.824;2023-07-22T08:51:21;26.90;99.90
8214;DHT22;4148;47.974;7.824;2023-07-22T08:53:50;27.00;99.90
8214;DHT22;4148;47.974;7.824;2023-07-22T08:56:36;27.20;99.90
8214;DHT22;4148;47.974;7.824;2023-07-22T08:59:05;27.20;99.90
8214;DHT22;4148;47.974;7.824;2023-07-22T09:01:34;27.00;99.90
8214;DHT22;4148;47.974;7.824;2023-07-22T09:04:04;27.30;99.90
8214;DHT22;4148;47.974;7.824;2023-07-22T09:06:33;27.10;99.90
8214;DHT22;4148;47.974;7.824;2023-07-22T09:09:02;27.10;99.90
8214;DHT22;4148;47.974;7.824;2023-07-22T09:11:34;27.40;99.90
8214;DHT22;4148;47.974;7.824;2023-07-22T09:14:02;27.40;99.90
8214;DHT22;4148;47.974;7.824;2023-07-22T09:16:31;27.50;99.90
8214;DHT22;4148;47.974;7.824;2023-07-22T09:19:00;27.60;99.90
8214;DHT22;4148;47.974;7.824;2023-07-22T09:21:29;27.70;99.90
8214;DHT22;4148;47.974;7.824;2023-07-22T09:23:57;28.00;99.90
8214;DHT22;4148;47.974;7.824;2023-07-22T09:26:25;28.00;99.90
8214;DHT22;4148;47.974;7.824;2023-07-22T09:28:54;28.00;99.90
8214;DHT22;4148;47.974;7.824;2023-07-22T09:31:24;27.80;99.90
8214;DHT22;4148;47.974;7.824;2023-07-22T09:33:53;27.50;99.90
8214;DHT22;4148;47.974;7.824;2023-07-22T09:36:21;27.50;99.90
8214;DHT22;4148;47.974;7.824;2023-07-22T09:39:00;27.60;99.90
8214;DHT22;4148;47.974;7.824;2023-07-22T09:41:31;27.80;99.90
8214;DHT22;4148;47.974;7.824;2023-07-22T09:44:03;27.30;99.90
8214;DHT22;4148;47.974;7.824;2023-07-22T09:46:31;27.10;99.90
8214;DHT22;4148;47.974;7.824;2023-07-22T09:49:03;26.70;99.90
8214;DHT22;4148;47.974;7.824;2023-07-22T09:51:33;26.80;99.90
8214;DHT22;4148;47.974;7.824;2023-07-22T09:54:19;27.30;99.90
8214;DHT22;4148;47.974;7.824;2023-07-22T09:56:49;27.80;99.90
8214;DHT22;4148;47.974;7.824;2023-07-22T09:59:18;28.30;99.90
8214;DHT22;4148;47.974;7.824;2023-07-22T10:01:48;28.70;99.90
8214;DHT22;4148;47.974;7.824;2023-07-22T10:04:18;29.00;99.90
8214;DHT22;4148;47.974;7.824;2023-07-22T10:06:48;28.40;99.90
8214;DHT22;4148;47.974;7.824;2023-07-22T10:09:19;27.90;99.90
8214;DHT22;4148;47.974;7.824;2023-07-22T10:11:49;27.90;99.90
8214;DHT22;4148;47.974;7.824;2023-07-22T10:14:17;28.20;99.90
8214;DHT22;4148;47.974;7.824;2023-07-22T10:16:46;28.60;99.90
8214;DHT22;4148;47.974;7.824;2023-07-22T10:19:14;28.50;99.90
8214;DHT22;4148;47.974;7.824;2023-07-22T10:21:43;28.10;99.90
8214;DHT22;4148;47.974;7.824;2023-07-22T10:24:11;27.40;99.90
8214;DHT22;4148;47.974;7.824;2023-07-22T10:26:41;27.50;99.90
8214;DHT22;4148;47.974;7.824;2023-07-22T10:29:13;27.40;99.90
8214;DHT22;4148;47.974;7.824;2023-07-22T10:31:41;26.90;99.90
8214;DHT22;4148;47.974;7.824;2023-07-22T10:34:10;27.20;99.90
8214;DHT22;4148;47.974;7.824;2023-07-22T10:36:38;27.90;99.90
8214;DHT22;4148;47.974;7.824;2023-07-22T10:39:05;28.70;99.90
8214;DHT22;4148;47.974;7.824;2023-07-22T10:41:38;28.20;99.90
8214;DHT22;4148;47.974;7.824;2023-07-22T10:44:10;27.60;99.90
8214;DHT22;4148;47.974;7.824;2023-07-22T10:46:39;27.20;99.90
8214;DHT22;4148;47.974;7.824;2023-07-22T10:49:11;27.60;99.90
8214;DHT22;4148;47.974;7.824;2023-07-22T10:51:39;28.00;99.90
8214;DHT22;4148;47.974;7.824;2023-07-22T10:54:11;27.80;99.90
8214;DHT22;4148;47.974;7.824;2023-07-22T10:56:41;27.60;99.90
8214;DHT22;4148;47.974;7.824;2023-07-22T10:59:11;27.60;99.90
8214;DHT22;4148;47.974;7.824;2023-07-22T11:01:39;28.20;99.90
8214;DHT22;4148;47.974;7.824;2023-07-22T11:04:13;28.90;99.90
8214;DHT22;4148;47.974;7.824;2023-07-22T11:06:55;29.40;99.90
8214;DHT22;4148;47.974;7.824;2023-07-22T11:09:36;29.90;99.90
8214;DHT22;4148;47.974;7.824;2023-07-22T11:12:06;29.90;99.90
8214;DHT22;4148;47.974;7.824;2023-07-22T11:14:38;29.70;99.90
8214;DHT22;4148;47.974;7.824;2023-07-22T11:17:08;29.40;99.90
8214;DHT22;4148;47.974;7.824;2023-07-22T11:19:37;29.60;99.90
8214;DHT22;4148;47.974;7.824;2023-07-22T11:22:06;29.80;99.90
8214;DHT22;4148;47.974;7.824;2023-07-22T11:24:35;30.00;99.90
8214;DHT22;4148;47.974;7.824;2023-07-22T11:27:04;30.20;99.90
8214;DHT22;4148;47.974;7.824;2023-07-22T11:29:32;30.10;99.90
8214;DHT22;4148;47.974;7.824;2023-07-22T11:32:03;29.40;99.90
8214;DHT22;4148;47.974;7.824;2023-07-22T11:34:32;29.50;99.90
8214;DHT22;4148;47.974;7.824;2023-07-22T11:37:00;29.40;99.90
8214;DHT22;4148;47.974;7.824;2023-07-22T11:39:32;29.40;99.90
8214;DHT22;4148;47.974;7.824;2023-07-22T11:42:03;29.40;99.90
8214;DHT22;4148;47.974;7.824;2023-07-22T11:44:32;29.50;99.90
8214;DHT22;4148;47.974;7.824;2023-07-22T11:47:02;29.40;99.90
8214;DHT22;4148;47.974;7.824;2023-07-22T11:49:32;29.40;99.90
8214;DHT22;4148;47.974;7.824;2023-07-22T11:52:02;29.40;99.90
8214;DHT22;4148;47.974;7.824;2023-07-22T11:54:31;29.30;99.90
8214;DHT22;4148;47.974;7.824;2023-07-22T11:57:10;29.30;99.90
8214;DHT22;4148;47.974;7.824;2023-07-22T11:59:43;29.20;99.90
8214;DHT22;4148;47.974;7.824;2023-07-22T12:02:14;29.20;99.90
8214;DHT22;4148;47.974;7.824;2023-07-22T12:04:43;29.20;99.90
8214;DHT22;4148;47.974;7.824;2023-07-22T12:07:23;28.80;99.90
8214;DHT22;4148;47.974;7.824;2023-07-22T12:09:52;28.50;99.90
8214;DHT22;4148;47.974;7.824;2023-07-22T12:12:20;28.50;99.90
8214;DHT22;4148;47.974;7.824;2023-07-22T12:14:47;28.40;99.90
8214;DHT22;4148;47.974;7.824;2023-07-22T12:17:17;28.10;99.90
8214;DHT22;4148;47.974;7.824;2023-07-22T12:19:51;28.10;99.90
8214;DHT22;4148;47.974;7.824;2023-07-22T12:22:20;28.10;99.90
8214;DHT22;4148;47.974;7.824;2023-07-22T12:24:48;28.00;99.90
8214;DHT22;4148;47.974;7.824;2023-07-22T12:27:16;27.90;99.90
8214;DHT22;4148;47.974;7.824;2023-07-22T12:29:44;27.90;99.90
8214;DHT22;4148;47.974;7.824;2023-07-22T12:32:12;27.90;99.90
8214;DHT22;4148;47.974;7.824;2023-07-22T12:34:41;27.90;99.90
8214;DHT22;4148;47.974;7.824;2023-07-22T12:37:09;27.90;99.90
8214;DHT22;4148;47.974;7.824;2023-07-22T12:39:37;27.80;99.90
8214;DHT22;4148;47.974;7.824;2023-07-22T12:42:05;27.80;99.90
8214;DHT22;4148;47.974;7.824;2023-07-22T12:44:33;27.50;99.90
8214;DHT22;4148;47.974;7.824;2023-07-22T12:47:01;27.70;99.90
8214;DHT22;4148;47.974;7.824;2023-07-22T12:49:29;27.70;99.90
8214;DHT22;4148;47.974;7.824;2023-07-22T12:51:58;27.80;99.90
8214;DHT22;4148;47.974;7.824;2023-07-22T12:54:30;27.80;99.90
8214;DHT22;4148;47.974;7.824;2023-07-22T12:56:58;27.60;99.90
8214;DHT22;4148;47.974;7.824;2023-07-22T12:59:26;27.10;99.90
8214;DHT22;4148;47.974;7.824;2023-07-22T13:01:54;27.20;99.90
8214;DHT22;4148;47.974;7.824;2023-07-22T13:04:24;27.10;99.90
8214;DHT22;4148;47.974;7.824;2023-07-22T13:06:52;27.00;99.90
8214;DHT22;4148;47.974;7.824;2023-07-22T13:09:22;27.10;99.90
8214;DHT22;4148;47.974;7.824;2023-07-22T13:11:49;26.80;99.90
8214;DHT22;4148;47.974;7.824;2023-07-22T13:14:17;26.80;99.90
8214;DHT22;4148;47.974;7.824;2023-07-22T13:16:46;26.90;99.90
8214;DHT22;4148;47.974;7.824;2023-07-22T13:19:13;26.90;99.90
8214;DHT22;4148;47.974;7.824;2023-07-22T13:21:41;26.90;99.90
8214;DHT22;4148;47.974;7.824;2023-07-22T13:24:09;26.90;99.90
8214;DHT22;4148;47.974;7.824;2023-07-22T13:26:38;26.80;99.90
8214;DHT22;4148;47.974;7.824;2023-07-22T13:29:06;26.80;99.90
8214;DHT22;4148;47.974;7.824;2023-07-22T13:31:35;26.80;99.90
8214;DHT22;4148;47.974;7.824;2023-07-22T13:34:03;26.90;99.90
8214;DHT22;4148;47.974;7.824;2023-07-22T13:36:31;26.90;99.90
8214;DHT22;4148;47.974;7.824;2023-07-22T13:38:59;26.90;99.90
8214;DHT22;4148;47.974;7.824;2023-07-22T13:41:27;26.90;99.90
8214;DHT22;4148;47.974;7.824;2023-07-22T13:43:57;26.80;99.90
8214;DHT22;4148;47.974;7.824;2023-07-22T13:46:25;26.80;99.90
8214;DHT22;4148;47.974;7.824;2023-07-22T13:48:52;26.80;99.90
8214;DHT22;4148;47.974;7.824;2023-07-22T13:51:20;26.70;99.90
8214;DHT22;4148;47.974;7.824;2023-07-22T13:56:18;26.70;99.90
8214;DHT22;4148;47.974;7.824;2023-07-22T13:58:46;26.70;99.90
8214;DHT22;4148;47.974;7.824;2023-07-22T14:01:15;26.70;99.90
8214;DHT22;4148;47.974;7.824;2023-07-22T14:03:44;26.80;99.90
8214;DHT22;4148;47.974;7.824;2023-07-22T14:06:12;26.80;99.90
8214;DHT22;4148;47.974;7.824;2023-07-22T14:08:40;26.80;99.90
8214;DHT22;4148;47.974;7.824;2023-07-22T14:11:08;26.70;99.90
8214;DHT22;4148;47.974;7.824;2023-07-22T14:13:36;26.70;99.90
8214;DHT22;4148;47.974;7.824;2023-07-22T14:16:04;26.60;99.90
8214;DHT22;4148;47.974;7.824;2023-07-22T14:18:49;26.60;99.90
8214;DHT22;4148;47.974;7.824;2023-07-22T14:21:18;26.50;99.90
8214;DHT22;4148;47.974;7.824;2023-07-22T14:23:46;26.60;99.90
8214;DHT22;4148;47.974;7.824;2023-07-22T14:26:14;26.60;99.90
8214;DHT22;4148;47.974;7.824;2023-07-22T14:28:42;26.50;99.90
8214;DHT22;4148;47.974;7.824;2023-07-22T14:31:10;26.50;99.90
8214;DHT22;4148;47.974;7.824;2023-07-22T14:33:38;26.40;99.90
8214;DHT22;4148;47.974;7.824;2023-07-22T14:36:07;26.30;99.90
8214;DHT22;4148;47.974;7.824;2023-07-22T14:38:35;26.30;99.90
8214;DHT22;4148;47.974;7.824;2023-07-22T14:41:03;26.30;99.90
8214;DHT22;4148;47.974;7.824;2023-07-22T14:43:31;26.30;99.90
8214;DHT22;4148;47.974;7.824;2023-07-22T14:45:59;26.30;99.90
8214;DHT22;4148;47.974;7.824;2023-07-22T14:48:27;26.20;99.90
8214;DHT22;4148;47.974;7.824;2023-07-22T14:50:55;26.20;99.90
8214;DHT22;4148;47.974;7.824;2023-07-22T14:53:24;26.10;99.90
8214;DHT22;4148;47.974;7.824;2023-07-22T14:55:52;26.10;99.90
8214;DHT22;4148;47.974;7.824;2023-07-22T14:58:20;26.10;99.90
8214;DHT22;4148;47.974;7.824;2023-07-22T15:00:47;26.20;99.90
8214;DHT22;4148;47.974;7.824;2023-07-22T15:03:16;26.20;99.90
8214;DHT22;4148;47.974;7.824;2023-07-22T15:05:44;26.30;99.90
8214;DHT22;4148;47.974;7.824;2023-07-22T15:08:12;26.30;99.90
8214;DHT22;4148;47.974;7.824;2023-07-22T15:10:41;26.30;99.90
8214;DHT22;4148;47.974;7.824;2023-07-22T15:13:09;26.30;99.90
8214;DHT22;4148;47.974;7.824;2023-07-22T15:15:37;26.30;99.90
8214;DHT22;4148;47.974;7.824;2023-07-22T15:18:05;26.30;99.90
8214;DHT22;4148;47.974;7.824;2023-07-22T15:20:34;26.40;99.90
8214;DHT22;4148;47.974;7.824;2023-07-22T15:23:02;26.30;99.90
8214;DHT22;4148;47.974;7.824;2023-07-22T15:25:30;26.30;99.90
8214;DHT22;4148;47.974;7.824;2023-07-22T15:27:59;26.30;99.90
8214;DHT22;4148;47.974;7.824;2023-07-22T15:30:27;26.30;99.90
8214;DHT22;4148;47.974;7.824;2023-07-22T15:32:55;26.30;99.90
8214;DHT22;4148;47.974;7.824;2023-07-22T15:35:23;26.30;99.90
8214;DHT22;4148;47.974;7.824;2023-07-22T15:37:51;26.30;99.90
8214;DHT22;4148;47.974;7.824;2023-07-22T15:40:19;26.30;99.90
8214;DHT22;4148;47.974;7.824;2023-07-22T15:42:47;26.20;99.90
8214;DHT22;4148;47.974;7.824;2023-07-22T15:45:16;26.10;99.90
8214;DHT22;4148;47.974;7.824;2023-07-22T15:47:44;26.10;99.90
8214;DHT22;4148;47.974;7.824;2023-07-22T15:50:12;26.10;99.90
8214;DHT22;4148;47.974;7.824;2023-07-22T15:52:40;26.00;99.90
8214;DHT22;4148;47.974;7.824;2023-07-22T15:55:08;26.00;99.90
8214;DHT22;4148;47.974;7.824;2023-07-22T15:57:36;26.10;99.90
8214;DHT22;4148;47.974;7.824;2023-07-22T16:00:05;26.10;99.90
8214;DHT22;4148;47.974;7.824;2023-07-22T16:02:38;26.10;99.90
8214;DHT22;4148;47.974;7.824;2023-07-22T16:05:06;26.10;99.90
8214;DHT22;4148;47.974;7.824;2023-07-22T16:07:46;26.10;99.90
8214;DHT22;4148;47.974;7.824;2023-07-22T16:10:14;26.10;99.90
8214;DHT22;4148;47.974;7.824;2023-07-22T16:12:42;26.00;99.90
8214;DHT22;4148;47.974;7.824;2023-07-22T16:15:10;26.00;99.90